createdAt,value
2018-04-22T00:00:46.383Z,92.30
2018-04-22T00:03:14.347Z,92.20
2018-04-22T00:05:41.846Z,92.20
2018-04-22T00:08:09.367Z,93.30
2018-04-22T00:10:36.859Z,94.10
2018-04-22T00:13:04.395Z,93.30
2018-04-22T00:15:31.904Z,92.90
2018-04-22T00:17:59.392Z,93.60
2018-04-22T00:20:26.891Z,93.50
2018-04-22T00:22:54.403Z,94.40
2018-04-22T00:25:21.899Z,94.20
2018-04-22T00:27:49.391Z,94.10
2018-04-22T00:30:17.485Z,94.50
2018-04-22T00:32:44.994Z,94.50
2018-04-22T00:35:12.484Z,94.90
2018-04-22T00:37:40.355Z,94.70
2018-04-22T00:40:07.854Z,94.70
2018-04-22T00:42:35.412Z,95.50
2018-04-22T00:45:02.936Z,94.80
2018-04-22T00:47:30.423Z,94.60
2018-04-22T00:49:57.924Z,94.80
2018-04-22T00:52:25.421Z,94.90
2018-04-22T00:54:52.913Z,94.80
2018-04-22T00:57:20.435Z,94.80
2018-04-22T00:59:47.910Z,95.60
2018-04-22T01:02:15.387Z,96.10
2018-04-22T01:04:42.865Z,96.40
2018-04-22T01:07:10.756Z,96.70
2018-04-22T01:09:38.223Z,96.70
2018-04-22T01:12:05.721Z,96.20
2018-04-22T01:14:33.191Z,96.40
2018-04-22T01:17:01.105Z,96.30
2018-04-22T01:19:28.593Z,96.30
2018-04-22T01:21:56.093Z,96.20
2018-04-22T01:24:23.977Z,97.00
2018-04-22T01:26:51.451Z,97.00
2018-04-22T01:29:18.962Z,97.00
2018-04-22T01:31:46.855Z,97.00
2018-04-22T01:34:14.390Z,97.00
2018-04-22T01:36:41.891Z,97.00
2018-04-22T01:39:09.402Z,97.00
2018-04-22T01:41:36.912Z,97.00
2018-04-22T01:44:04.395Z,97.00
2018-04-22T01:46:31.942Z,97.00
2018-04-22T01:48:59.446Z,97.00
2018-04-22T01:51:27.336Z,97.00
2018-04-22T01:53:54.825Z,97.00
2018-04-22T01:56:22.304Z,97.00
2018-04-22T01:58:49.783Z,97.00
2018-04-22T02:01:17.680Z,97.00
2018-04-22T02:03:45.349Z,97.00
2018-04-22T02:06:13.058Z,97.00
2018-04-22T02:08:40.867Z,97.00
2018-04-22T02:11:08.546Z,97.00
2018-04-22T02:13:36.152Z,97.00
2018-04-22T02:16:03.788Z,97.00
2018-04-22T02:18:31.927Z,97.00
2018-04-22T02:20:59.600Z,97.00
2018-04-22T02:23:27.304Z,97.00
2018-04-22T02:25:55.347Z,97.00
2018-04-22T02:28:23.045Z,97.00
2018-04-22T02:30:50.766Z,97.00
2018-04-22T02:33:18.696Z,97.00
2018-04-22T02:35:46.427Z,97.00
2018-04-22T02:38:14.483Z,96.70
2018-04-22T02:40:42.749Z,96.60
2018-04-22T02:43:10.789Z,97.00
2018-04-22T02:45:38.553Z,97.00
2018-04-22T02:48:06.310Z,97.00
2018-04-22T02:50:34.034Z,97.00
2018-04-22T02:53:01.769Z,97.00
2018-04-22T02:55:32.963Z,97.00
2018-04-22T02:58:00.803Z,97.00
2018-04-22T03:00:28.461Z,97.00
2018-04-22T03:02:56.814Z,97.00
2018-04-22T03:05:24.546Z,97.00
2018-04-22T03:07:52.027Z,97.00
2018-04-22T03:10:20.303Z,97.00
2018-04-22T03:12:48.787Z,97.00
2018-04-22T03:15:17.217Z,97.00
2018-04-22T03:17:45.931Z,97.00
2018-04-22T03:20:14.581Z,97.00
2018-04-22T03:22:43.076Z,97.00
2018-04-22T03:25:11.680Z,97.00
2018-04-22T03:27:39.780Z,97.00
2018-04-22T03:30:07.671Z,97.00
2018-04-22T03:32:35.379Z,97.00
2018-04-22T03:35:04.513Z,97.00
2018-04-22T03:37:32.714Z,97.00
2018-04-22T03:40:00.537Z,97.00
2018-04-22T03:42:28.218Z,97.00
2018-04-22T03:44:56.391Z,97.00
2018-04-22T03:47:24.314Z,97.00
2018-04-22T03:49:52.172Z,97.00
2018-04-22T03:52:20.051Z,97.00
2018-04-22T03:54:47.686Z,97.00
2018-04-22T03:57:15.308Z,97.00
2018-04-22T03:59:43.332Z,97.00
2018-04-22T04:02:10.977Z,97.00
2018-04-22T04:04:38.611Z,97.00
2018-04-22T04:07:06.129Z,97.00
2018-04-22T04:09:33.865Z,97.00
2018-04-22T04:12:01.583Z,97.00
2018-04-22T04:14:29.215Z,97.00
2018-04-22T04:16:56.905Z,97.00
2018-04-22T04:19:36.334Z,97.00
2018-04-22T04:22:15.722Z,97.00
2018-04-22T04:27:46.796Z,97.00
2018-04-22T04:30:14.323Z,97.00
2018-04-22T04:32:41.793Z,97.00
2018-04-22T04:35:09.299Z,97.00
2018-04-22T04:37:36.775Z,97.00
2018-04-22T04:40:04.661Z,97.00
2018-04-22T04:42:32.519Z,97.00
2018-04-22T04:45:00.405Z,97.00
2018-04-22T04:47:27.864Z,97.00
2018-04-22T04:49:55.340Z,97.00
2018-04-22T04:52:22.834Z,97.00
2018-04-22T04:54:50.319Z,97.00
2018-04-22T04:57:17.821Z,97.00
2018-04-22T04:59:45.301Z,97.00
2018-04-22T05:02:12.787Z,97.00
2018-04-22T05:04:40.691Z,97.00
2018-04-22T05:07:08.157Z,97.00
2018-04-22T05:09:35.617Z,97.00
2018-04-22T05:12:03.089Z,97.00
2018-04-22T05:14:30.577Z,97.00
2018-04-22T05:16:58.471Z,97.00
2018-04-22T05:19:25.947Z,97.00
2018-04-22T05:21:53.445Z,97.00
2018-04-22T05:24:20.955Z,96.50
2018-04-22T05:26:48.424Z,96.10
2018-04-22T05:29:15.895Z,95.60
2018-04-22T05:31:43.388Z,95.50
2018-04-22T05:34:11.274Z,94.90
2018-04-22T05:36:38.755Z,94.90
2018-04-22T05:39:06.231Z,94.40
2018-04-22T05:41:33.705Z,94.30
2018-04-22T05:44:01.188Z,94.30
2018-04-22T05:46:28.702Z,93.90
2018-04-22T05:48:56.207Z,93.60
2018-04-22T05:51:23.695Z,94.60
2018-04-22T05:53:51.206Z,94.90
2018-04-22T05:56:19.084Z,94.70
2018-04-22T05:58:46.942Z,94.70
2018-04-22T06:01:14.829Z,95.10
2018-04-22T06:03:42.333Z,95.10
2018-04-22T06:06:09.807Z,94.20
2018-04-22T06:08:37.289Z,93.90
2018-04-22T06:11:05.634Z,93.60
2018-04-22T06:13:33.169Z,93.50
2018-04-22T06:16:01.729Z,93.20
2018-04-22T06:18:29.212Z,93.20
2018-04-22T06:20:56.707Z,93.30
2018-04-22T06:23:24.201Z,93.50
2018-04-22T06:25:51.689Z,93.50
2018-04-22T06:28:19.181Z,93.00
2018-04-22T06:30:46.641Z,92.80
2018-04-22T06:33:14.516Z,91.60
2018-04-22T06:35:42.379Z,91.00
2018-04-22T06:38:10.244Z,90.40
2018-04-22T06:40:38.149Z,90.10
2018-04-22T06:43:05.634Z,90.10
2018-04-22T06:45:33.181Z,88.70
2018-04-22T06:48:00.680Z,87.80
2018-04-22T06:50:28.173Z,87.40
2018-04-22T06:52:55.658Z,87.50
2018-04-22T06:55:23.137Z,87.90
2018-04-22T06:57:50.629Z,87.30
2018-04-22T07:00:18.115Z,87.80
2018-04-22T07:02:45.621Z,88.00
2018-04-22T07:05:13.501Z,86.80
2018-04-22T07:07:40.993Z,86.80
2018-04-22T07:10:08.476Z,85.50
2018-04-22T07:12:35.947Z,84.00
2018-04-22T07:15:03.448Z,82.20
2018-04-22T07:17:30.937Z,80.80
2018-04-22T07:19:58.412Z,79.50
2018-04-22T07:22:25.884Z,79.70
2018-04-22T07:24:53.765Z,79.30
2018-04-22T07:27:21.248Z,79.30
2018-04-22T07:29:48.739Z,78.90
2018-04-22T07:32:16.230Z,78.40
2018-04-22T07:34:43.756Z,77.50
2018-04-22T07:37:11.243Z,76.40
2018-04-22T07:39:39.117Z,75.40
2018-04-22T07:42:06.599Z,75.40
2018-04-22T07:44:34.098Z,75.10
2018-04-22T07:47:01.581Z,75.60
2018-04-22T07:49:29.473Z,76.40
2018-04-22T07:51:56.937Z,76.40
2018-04-22T07:54:24.474Z,76.50
2018-04-22T07:56:52.074Z,76.20
2018-04-22T07:59:19.563Z,75.40
2018-04-22T08:01:47.098Z,75.10
2018-04-22T08:04:14.578Z,75.00
2018-04-22T08:06:42.104Z,74.50
2018-04-22T08:09:09.584Z,74.00
2018-04-22T08:11:37.068Z,74.00
2018-04-22T08:14:04.562Z,73.60
2018-04-22T08:16:32.035Z,73.40
2018-04-22T08:18:59.543Z,73.10
2018-04-22T08:21:27.067Z,72.30
2018-04-22T08:23:54.495Z,71.80
2018-04-22T08:26:21.980Z,70.90
2018-04-22T08:28:50.594Z,70.70
2018-04-22T08:31:18.507Z,71.60
2018-04-22T08:33:46.017Z,71.70
2018-04-22T08:36:13.902Z,70.30
2018-04-22T08:38:41.399Z,70.30
2018-04-22T08:41:08.884Z,70.20
2018-04-22T08:43:36.381Z,69.80
2018-04-22T08:46:03.861Z,69.30
2018-04-22T08:48:31.334Z,68.90
2018-04-22T08:50:58.809Z,67.60
2018-04-22T08:53:26.683Z,65.80
2018-04-22T08:55:54.580Z,66.20
2018-04-22T08:58:22.056Z,66.20
2018-04-22T09:00:49.535Z,66.20
2018-04-22T09:03:17.029Z,65.80
2018-04-22T09:05:44.891Z,65.30
2018-04-22T09:08:12.805Z,65.10
2018-04-22T09:10:40.270Z,65.10
2018-04-22T09:13:07.754Z,64.60
2018-04-22T09:15:35.281Z,64.60
2018-04-22T09:18:02.751Z,64.40
2018-04-22T09:20:30.223Z,64.30
2018-04-22T09:22:57.713Z,63.20
2018-04-22T09:25:25.211Z,62.60
2018-04-22T09:27:52.687Z,62.70
2018-04-22T09:30:20.155Z,63.60
2018-04-22T09:32:47.635Z,64.30
2018-04-22T09:35:15.515Z,63.40
2018-04-22T09:37:43.008Z,63.40
2018-04-22T09:40:10.502Z,63.70
2018-04-22T09:42:38.386Z,65.10
2018-04-22T09:45:05.860Z,65.10
2018-04-22T09:47:33.346Z,65.40
2018-04-22T09:50:00.850Z,65.00
2018-04-22T09:52:28.335Z,64.30
2018-04-22T09:54:55.809Z,64.30
2018-04-22T09:57:23.283Z,64.30
2018-04-22T09:59:50.794Z,65.50
2018-04-22T10:02:23.894Z,65.70
2018-04-22T10:04:51.463Z,65.60
2018-04-22T10:07:18.949Z,65.40
2018-04-22T10:09:46.423Z,65.00
2018-04-22T10:12:14.340Z,64.60
2018-04-22T10:14:41.798Z,64.60
2018-04-22T10:17:09.289Z,64.10
2018-04-22T10:19:36.770Z,63.90
2018-04-22T10:22:04.663Z,63.10
2018-04-22T10:24:32.141Z,63.10
2018-04-22T10:26:59.646Z,63.40
2018-04-22T10:29:27.155Z,62.80
2018-04-22T10:31:54.688Z,62.50
2018-04-22T10:34:22.167Z,61.80
2018-04-22T10:36:49.648Z,61.40
2018-04-22T10:39:17.135Z,60.70
2018-04-22T10:41:45.018Z,59.40
2018-04-22T10:44:12.498Z,59.40
2018-04-22T10:46:40.006Z,59.50
2018-04-22T10:49:07.907Z,59.40
2018-04-22T10:51:35.378Z,59.40
2018-04-22T10:54:02.934Z,60.30
2018-04-22T10:56:30.459Z,60.10
2018-04-22T10:59:02.548Z,59.80
2018-04-22T11:01:30.041Z,59.80
2018-04-22T11:03:57.521Z,61.90
2018-04-22T11:06:25.026Z,61.80
2018-04-22T11:08:52.513Z,60.80
2018-04-22T11:11:19.983Z,59.70
2018-04-22T11:13:47.474Z,58.90
2018-04-22T11:16:15.330Z,60.20
2018-04-22T11:18:43.226Z,60.30
2018-04-22T11:21:10.720Z,60.40
2018-04-22T11:23:38.214Z,58.70
2018-04-22T11:26:06.083Z,57.90
2018-04-22T11:28:33.967Z,56.60
2018-04-22T11:31:01.462Z,56.60
2018-04-22T11:33:28.922Z,56.00
2018-04-22T11:35:56.400Z,55.70
2018-04-22T11:38:23.890Z,55.00
2018-04-22T11:40:51.371Z,56.00
2018-04-22T11:43:18.853Z,56.30
2018-04-22T11:45:46.450Z,56.60
2018-04-22T11:48:14.350Z,56.30
2018-04-22T11:50:41.865Z,56.40
2018-04-22T11:53:09.751Z,55.40
2018-04-22T11:55:37.299Z,55.40
2018-04-22T11:58:04.759Z,56.30
2018-04-22T12:00:32.634Z,55.60
2018-04-22T12:03:00.123Z,55.60
2018-04-22T12:05:27.624Z,55.90
2018-04-22T12:07:55.125Z,55.40
2018-04-22T12:10:22.651Z,56.20
2018-04-22T12:12:50.519Z,56.90
2018-04-22T12:15:17.991Z,56.90
2018-04-22T12:17:45.474Z,57.70
2018-04-22T12:20:12.990Z,57.40
2018-04-22T12:22:40.945Z,57.40
2018-04-22T12:25:11.649Z,57.40
2018-04-22T12:27:39.268Z,56.80
2018-04-22T12:30:06.785Z,55.90
2018-04-22T12:32:34.274Z,55.60
2018-04-22T12:35:01.770Z,55.30
2018-04-22T12:37:29.252Z,54.00
2018-04-22T12:39:56.737Z,54.20
2018-04-22T12:42:25.188Z,54.30
2018-04-22T12:44:53.826Z,53.90
2018-04-22T12:47:21.334Z,54.10
2018-04-22T12:49:48.841Z,54.10
2018-04-22T12:52:16.326Z,54.90
2018-04-22T12:54:43.846Z,55.00
2018-04-22T12:57:11.338Z,55.30
2018-04-22T12:59:38.819Z,55.10
2018-04-22T13:02:06.326Z,55.40
2018-04-22T13:04:34.579Z,54.90
2018-04-22T13:07:02.455Z,54.30
2018-04-22T13:09:29.976Z,54.30
2018-04-22T13:11:57.463Z,54.60
2018-04-22T13:14:26.139Z,54.20
2018-04-22T13:16:54.049Z,54.10
2018-04-22T13:19:21.562Z,54.10
2018-04-22T13:21:49.460Z,54.50
2018-04-22T13:24:17.782Z,54.50
2018-04-22T13:26:45.263Z,55.00
2018-04-22T13:29:13.136Z,53.90
2018-04-22T13:31:41.049Z,53.30
2018-04-22T13:34:08.512Z,53.30
2018-04-22T13:36:36.018Z,53.80
2018-04-22T13:39:03.601Z,52.70
2018-04-22T13:41:33.768Z,52.90
2018-04-22T13:44:01.245Z,52.90
2018-04-22T13:46:29.933Z,52.40
2018-04-22T13:49:00.401Z,51.20
2018-04-22T13:51:27.920Z,51.20
2018-04-22T13:53:55.795Z,51.20
2018-04-22T13:56:23.291Z,51.20
2018-04-22T13:58:52.547Z,51.90
2018-04-22T14:01:20.041Z,51.00
2018-04-22T14:03:48.066Z,50.90
2018-04-22T14:06:15.943Z,50.40
2018-04-22T14:08:43.876Z,50.90
2018-04-22T14:11:12.015Z,50.90
2018-04-22T14:13:39.523Z,50.50
2018-04-22T14:16:07.001Z,50.20
2018-04-22T14:18:34.489Z,49.80
2018-04-22T14:21:01.976Z,49.20
2018-04-22T14:23:29.462Z,49.30
2018-04-22T14:25:57.359Z,49.90
2018-04-22T14:28:26.905Z,49.90
2018-04-22T14:30:54.397Z,50.80
2018-04-22T14:33:21.905Z,50.80
2018-04-22T14:35:49.375Z,51.50
2018-04-22T14:38:16.877Z,52.00
2018-04-22T14:40:44.367Z,52.50
2018-04-22T14:43:11.843Z,52.20
2018-04-22T14:45:53.674Z,52.90
2018-04-22T14:48:21.200Z,53.00
2018-04-22T14:50:48.717Z,53.60
2018-04-22T14:53:16.199Z,54.30
2018-04-22T14:55:43.681Z,54.80
2018-04-22T14:58:11.571Z,55.80
2018-04-22T15:00:39.443Z,55.70
2018-04-22T15:03:06.918Z,55.70
2018-04-22T15:05:34.414Z,55.70
2018-04-22T15:08:01.899Z,56.20
2018-04-22T15:10:29.783Z,57.10
2018-04-22T15:12:57.293Z,57.10
2018-04-22T15:15:24.770Z,57.10
2018-04-22T15:17:52.249Z,57.20
2018-04-22T15:20:20.116Z,58.50
2018-04-22T15:22:47.634Z,58.50
2018-04-22T15:25:15.118Z,58.80
2018-04-22T15:27:42.982Z,59.80
2018-04-22T15:30:10.866Z,59.50
2018-04-22T15:32:38.361Z,59.50
2018-04-22T15:35:05.880Z,59.90
2018-04-22T15:37:33.371Z,60.00
2018-04-22T15:40:00.859Z,60.40
2018-04-22T15:42:28.333Z,60.80
2018-04-22T15:45:03.919Z,61.70
2018-04-22T15:47:31.422Z,61.70
2018-04-22T15:49:58.905Z,61.40
2018-04-22T15:52:26.795Z,61.50
2018-04-22T15:54:54.303Z,61.50
2018-04-22T15:57:21.874Z,61.60
2018-04-22T15:59:49.762Z,63.50
2018-04-22T16:02:17.655Z,65.00
2018-04-22T16:04:45.141Z,65.00
2018-04-22T16:07:12.623Z,65.90
2018-04-22T16:09:40.501Z,67.70
2018-04-22T16:12:08.363Z,67.70
2018-04-22T16:14:36.296Z,67.40
2018-04-22T16:17:03.743Z,67.40
2018-04-22T16:19:31.222Z,66.50
2018-04-22T16:21:58.700Z,66.00
2018-04-22T16:24:26.582Z,65.50
2018-04-22T16:26:54.075Z,65.50
2018-04-22T16:29:21.541Z,65.80
2018-04-22T16:31:49.019Z,64.20
2018-04-22T16:34:16.487Z,64.00
2018-04-22T16:36:44.390Z,63.10
2018-04-22T16:39:11.869Z,63.20
2018-04-22T16:41:39.346Z,63.00
2018-04-22T16:44:06.887Z,63.00
2018-04-22T16:46:34.376Z,63.60
2018-04-22T16:49:01.853Z,63.60
2018-04-22T16:51:29.727Z,64.30
2018-04-22T16:53:57.237Z,64.30
2018-04-22T16:56:24.723Z,64.80
2018-04-22T16:58:52.619Z,63.90
2018-04-22T17:01:20.155Z,63.90
2018-04-22T17:03:47.581Z,64.30
2018-04-22T17:06:15.073Z,64.80
2018-04-22T17:08:42.980Z,65.00
2018-04-22T17:11:11.544Z,65.00
2018-04-22T17:13:39.076Z,64.60
2018-04-22T17:16:06.948Z,64.80
2018-04-22T17:18:34.454Z,64.80
2018-04-22T17:21:02.927Z,64.80
2018-04-22T17:23:30.444Z,65.20
2018-04-22T17:25:58.342Z,66.00
2018-04-22T17:28:25.814Z,66.00
2018-04-22T17:30:53.302Z,67.20
2018-04-22T17:33:20.781Z,67.90
2018-04-22T17:35:48.649Z,69.50
2018-04-22T17:38:16.137Z,69.50
2018-04-22T17:40:43.679Z,69.80
2018-04-22T17:43:11.372Z,68.80
2018-04-22T17:45:38.908Z,67.30
2018-04-22T17:48:06.424Z,66.80
2018-04-22T17:50:34.340Z,66.70
2018-04-22T17:53:01.916Z,66.70
2018-04-22T17:55:29.424Z,67.30
2018-04-22T17:57:57.321Z,68.30
2018-04-22T18:00:24.829Z,68.30
2018-04-22T18:02:52.748Z,71.00
2018-04-22T18:05:20.232Z,71.00
2018-04-22T18:07:47.758Z,72.60
2018-04-22T18:10:15.245Z,74.40
2018-04-22T18:12:42.751Z,75.60
2018-04-22T18:15:10.270Z,76.40
2018-04-22T18:17:37.791Z,77.00
2018-04-22T18:20:05.263Z,77.30
2018-04-22T18:22:32.743Z,77.70
2018-04-22T18:25:00.321Z,78.00
2018-04-22T18:27:27.774Z,78.20
2018-04-22T18:29:55.661Z,78.60
2018-04-22T18:32:23.153Z,78.50
2018-04-22T18:34:50.644Z,78.50
2018-04-22T18:37:18.137Z,78.60
2018-04-22T18:39:45.608Z,78.60
2018-04-22T18:42:13.107Z,78.70
2018-04-22T18:44:40.675Z,78.70
2018-04-22T18:47:09.034Z,78.80
2018-04-22T18:49:36.515Z,78.70
2018-04-22T18:52:04.461Z,78.20
2018-04-22T18:54:32.374Z,78.20
2018-04-22T18:56:59.859Z,78.20
2018-04-22T18:59:27.319Z,78.30
2018-04-22T19:01:54.793Z,78.00
2018-04-22T19:04:22.281Z,77.90
2018-04-22T19:06:50.147Z,77.90
2018-04-22T19:09:18.047Z,77.60
2018-04-22T19:11:45.530Z,77.60
2018-04-22T19:14:13.039Z,77.70
2018-04-22T19:16:40.924Z,77.60
2018-04-22T19:19:08.432Z,77.60
2018-04-22T19:21:35.899Z,77.60
2018-04-22T19:24:03.375Z,77.80
2018-04-22T19:26:31.282Z,77.90
2018-04-22T19:28:58.779Z,77.90
2018-04-22T19:31:26.385Z,78.10
2018-04-22T19:33:53.863Z,78.30
2018-04-22T19:36:21.361Z,78.50
2018-04-22T19:38:48.848Z,77.80
2018-04-22T19:41:16.334Z,77.80
2018-04-22T19:43:43.810Z,77.80
2018-04-22T19:46:11.300Z,77.00
2018-04-22T19:48:39.207Z,78.00
2018-04-22T19:51:06.682Z,78.00
2018-04-22T19:53:34.159Z,78.70
2018-04-22T19:56:01.715Z,79.60
2018-04-22T19:58:29.245Z,79.90
2018-04-22T20:00:56.807Z,80.10
2018-04-22T20:03:24.295Z,80.30
2018-04-22T20:05:52.056Z,80.50
2018-04-22T20:08:19.693Z,80.80
2018-04-22T20:10:47.183Z,80.70
2018-04-22T20:13:14.721Z,81.20
2018-04-22T20:15:42.191Z,81.60
2018-04-22T20:18:09.678Z,81.80
2018-04-22T20:20:37.161Z,81.70
2018-04-22T20:23:04.682Z,81.60
2018-04-22T20:25:32.560Z,82.20
2018-04-22T20:28:00.030Z,82.20
2018-04-22T20:30:27.527Z,82.70
2018-04-22T20:32:55.003Z,83.20
2018-04-22T20:35:22.879Z,83.80
2018-04-22T20:37:50.757Z,83.70
2018-04-22T20:40:18.275Z,83.70
2018-04-22T20:42:45.743Z,83.70
2018-04-22T20:45:13.271Z,84.00
2018-04-22T20:47:40.743Z,84.10
2018-04-22T20:50:08.253Z,84.70
2018-04-22T20:52:35.754Z,84.70
2018-04-22T20:55:03.230Z,84.80
2018-04-22T20:57:30.743Z,84.90
2018-04-22T20:59:58.235Z,85.10
2018-04-22T21:02:25.721Z,85.80
2018-04-22T21:04:53.628Z,86.30
2018-04-22T21:07:21.116Z,86.30
2018-04-22T21:09:48.614Z,86.00
2018-04-22T21:12:16.109Z,86.30
2018-04-22T21:14:43.607Z,86.40
2018-04-22T21:17:11.572Z,87.20
2018-04-22T21:19:39.097Z,87.20
2018-04-22T21:22:06.590Z,87.30
2018-04-22T21:24:34.546Z,87.70
2018-04-22T21:27:02.031Z,87.70
2018-04-22T21:29:29.958Z,88.20
2018-04-22T21:31:57.488Z,88.20
2018-04-22T21:34:24.964Z,88.50
2018-04-22T21:36:52.454Z,89.10
2018-04-22T21:39:20.349Z,89.80
2018-04-22T21:41:47.842Z,89.80
2018-04-22T21:44:15.409Z,89.60
2018-04-22T21:46:42.898Z,89.60
2018-04-22T21:49:10.775Z,90.40
2018-04-22T21:51:38.662Z,90.10
2018-04-22T21:54:06.141Z,90.10
2018-04-22T21:56:33.645Z,90.50
2018-04-22T21:59:01.528Z,91.70
2018-04-22T22:01:29.390Z,92.50
2018-04-22T22:03:57.263Z,92.00
2018-04-22T22:06:25.151Z,92.50
2018-04-22T22:08:52.614Z,92.50
2018-04-22T22:11:20.099Z,92.50
2018-04-22T22:13:47.605Z,91.80
2018-04-22T22:16:15.103Z,92.40
2018-04-22T22:18:42.594Z,92.30
2018-04-22T22:21:11.025Z,92.50
2018-04-22T22:23:38.534Z,92.90
2018-04-22T22:26:06.432Z,92.90
2018-04-22T22:28:33.904Z,92.90
2018-04-22T22:31:01.393Z,93.60
2018-04-22T22:33:28.866Z,93.70
2018-04-22T22:35:56.361Z,93.40
2018-04-22T22:38:23.859Z,93.60
2018-04-22T22:40:51.361Z,94.10
2018-04-22T22:43:18.866Z,93.80
2018-04-22T22:45:46.352Z,94.10
2018-04-22T22:48:13.857Z,94.80
2018-04-22T22:50:41.349Z,94.90
2018-04-22T22:53:08.878Z,94.90
2018-04-22T22:55:36.346Z,94.80
2018-04-22T22:58:03.834Z,95.20
2018-04-22T23:00:31.315Z,95.50
2018-04-22T23:02:59.179Z,95.50
2018-04-22T23:05:27.095Z,95.20
2018-04-22T23:07:54.566Z,95.20
2018-04-22T23:10:22.110Z,95.70
2018-04-22T23:12:49.602Z,95.80
2018-04-22T23:15:17.483Z,95.90
2018-04-22T23:17:45.370Z,96.30
2018-04-22T23:20:14.568Z,96.30
2018-04-22T23:22:42.053Z,95.70
2018-04-22T23:25:10.521Z,95.40
2018-04-22T23:27:38.017Z,95.50
2018-04-22T23:30:05.491Z,95.90
2018-04-22T23:32:35.157Z,97.00
2018-04-22T23:35:02.650Z,97.00
2018-04-22T23:37:30.127Z,97.00
2018-04-22T23:39:57.617Z,97.00
2018-04-22T23:42:25.126Z,97.00
2018-04-22T23:44:53.002Z,97.00
2018-04-22T23:47:20.889Z,96.90
2018-04-22T23:49:48.460Z,96.90
2018-04-22T23:52:16.020Z,97.00
2018-04-22T23:54:43.498Z,97.00
2018-04-22T23:57:11.009Z,97.00
2018-04-22T23:59:38.470Z,97.00
